Time,TemperatureF,DewpointF,PressureIn,WindDirection,WindDirectionDegrees,WindSpeedMPH,WindSpeedGustMPH,Humidity,HourlyPrecipIn,Conditions,Clouds,dailyrainin,SoftwareType,DateUTC
2013-05-15 00:03:00,63.9,45.4,30.29,South,180,0.7,1.6,51,0.00,,,0.00,pywws,2013-05-15 04:03:00,
2013-05-15 00:08:00,64.0,45.0,30.30,SE,135,0.7,2.2,50,0.00,,,0.00,pywws,2013-05-15 04:08:00,
2013-05-15 00:13:00,63.9,44.9,30.30,SE,135,0.7,2.2,50,0.00,,,0.00,pywws,2013-05-15 04:13:00,
2013-05-15 00:18:00,63.9,44.9,30.30,SE,135,0.7,1.6,50,0.00,,,0.00,pywws,2013-05-15 04:18:00,
2013-05-15 00:23:00,63.9,44.9,30.31,SE,135,0.0,1.6,50,0.00,,,0.00,pywws,2013-05-15 04:23:00,
2013-05-15 00:33:00,63.7,45.2,30.31,SE,135,0.7,1.6,51,0.00,,,0.00,pywws,2013-05-15 04:33:00,
2013-05-15 00:38:00,63.7,45.2,30.31,SE,135,0.0,1.6,51,0.00,,,0.00,pywws,2013-05-15 04:38:00,
2013-05-15 00:43:00,63.5,45.0,30.31,South,180,0.7,1.6,51,0.00,,,0.00,pywws,2013-05-15 04:43:00,
2013-05-15 00:48:00,63.5,45.0,30.31,South,180,0.0,0.7,51,0.00,,,0.00,pywws,2013-05-15 04:48:00,
2013-05-15 00:53:00,63.3,44.9,30.32,East,90,0.0,0.7,51,0.00,,,0.00,pywws,2013-05-15 04:53:00,
2013-05-15 01:03:00,63.1,44.7,30.32,SW,225,0.0,1.6,51,0.00,,,0.00,pywws,2013-05-15 05:03:00,
2013-05-15 01:07:00,63.0,45.1,30.32,South,180,0.0,0.7,52,0.00,,,0.00,pywws,2013-05-15 05:07:00,
2013-05-15 01:12:00,62.8,44.9,30.32,SE,135,0.0,1.6,52,0.00,,,0.00,pywws,2013-05-15 05:12:00,
2013-05-15 01:17:00,62.8,44.9,30.32,SE,135,0.0,0.7,52,0.00,,,0.00,pywws,2013-05-15 05:17:00,
2013-05-15 01:22:00,62.8,44.9,30.32,SE,135,0.0,0.7,52,0.00,,,0.00,pywws,2013-05-15 05:22:00,
2013-05-15 01:33:00,62.8,44.9,30.32,SE,135,0.0,0.7,52,0.00,,,0.00,pywws,2013-05-15 05:33:00,
2013-05-15 01:38:00,62.6,45.2,30.32,South,180,0.0,1.6,53,0.00,,,0.00,pywws,2013-05-15 05:38:00,
2013-05-15 01:43:00,62.4,45.1,30.32,South,180,0.0,0.7,53,0.00,,,0.00,pywws,2013-05-15 05:43:00,
2013-05-15 01:48:00,62.4,45.6,30.33,SE,135,0.0,1.6,54,0.00,,,0.00,pywws,2013-05-15 05:48:00,
2013-05-15 01:53:00,62.2,45.4,30.33,South,180,0.0,0.7,54,0.00,,,0.00,pywws,2013-05-15 05:53:00,
2013-05-15 02:03:00,62.2,45.4,30.33,South,180,0.0,0.7,54,0.00,,,0.00,pywws,2013-05-15 06:03:00,
2013-05-15 02:08:00,62.1,45.7,30.33,South,180,0.7,1.6,55,0.00,,,0.00,pywws,2013-05-15 06:08:00,
2013-05-15 02:13:00,62.1,45.7,30.33,SE,135,0.0,0.7,55,0.00,,,0.00,pywws,2013-05-15 06:13:00,
2013-05-15 02:18:00,61.9,45.5,30.33,SW,225,0.0,1.6,55,0.00,,,0.00,pywws,2013-05-15 06:18:00,
2013-05-15 02:23:00,61.7,45.4,30.33,North,0,0.0,1.6,55,0.00,,,0.00,pywws,2013-05-15 06:23:00,
2013-05-15 02:33:00,61.7,45.4,30.33,West,270,0.0,0.0,55,0.00,,,0.00,pywws,2013-05-15 06:33:00,
2013-05-15 02:38:00,61.7,45.8,30.33,South,180,0.0,1.6,56,0.00,,,0.00,pywws,2013-05-15 06:38:00,
2013-05-15 02:43:00,61.5,45.7,30.34,North,0,0.0,0.7,56,0.00,,,0.00,pywws,2013-05-15 06:43:00,
2013-05-15 02:48:00,61.5,45.7,30.34,South,180,0.0,0.7,56,0.00,,,0.00,pywws,2013-05-15 06:48:00,
2013-05-15 02:53:00,63.0,47.5,30.34,SE,135,0.0,0.0,57,0.00,,,0.00,pywws,2013-05-15 06:53:00,
2013-05-15 03:03:00,61.2,45.8,30.34,West,270,0.7,2.2,57,0.00,,,0.00,pywws,2013-05-15 07:03:00,
2013-05-15 03:08:00,61.2,46.3,30.34,SE,135,0.0,1.6,58,0.00,,,0.00,pywws,2013-05-15 07:08:00,
2013-05-15 03:13:00,61.2,46.3,30.34,South,180,0.0,0.7,58,0.00,,,0.00,pywws,2013-05-15 07:13:00,
2013-05-15 03:18:00,61.2,46.7,30.34,SW,225,0.7,1.6,59,0.00,,,0.00,pywws,2013-05-15 07:18:00,
2013-05-15 03:23:00,61.0,46.1,30.34,SW,225,0.0,0.0,58,0.00,,,0.00,pywws,2013-05-15 07:23:00,
2013-05-15 03:33:00,61.0,46.5,30.35,East,90,0.0,0.7,59,0.00,,,0.00,pywws,2013-05-15 07:33:00,
2013-05-15 03:38:00,60.8,46.4,30.35,West,270,0.0,0.0,59,0.00,,,0.00,pywws,2013-05-15 07:38:00,
2013-05-15 03:43:00,60.6,46.7,30.35,West,270,0.0,1.6,60,0.00,,,0.00,pywws,2013-05-15 07:43:00,
2013-05-15 03:48:00,60.6,46.7,30.35,SW,225,0.0,0.7,60,0.00,,,0.00,pywws,2013-05-15 07:48:00,
2013-05-15 03:53:00,60.6,46.7,30.35,SW,225,0.0,0.7,60,0.00,,,0.00,pywws,2013-05-15 07:53:00,
2013-05-15 04:03:00,60.3,46.3,30.36,West,270,0.0,0.7,60,0.00,,,0.00,pywws,2013-05-15 08:03:00,
2013-05-15 04:08:00,60.1,47.0,30.36,SW,225,0.0,1.6,62,0.00,,,0.00,pywws,2013-05-15 08:08:00,
2013-05-15 04:13:00,60.1,47.0,30.36,SE,135,0.0,0.7,62,0.00,,,0.00,pywws,2013-05-15 08:13:00,
2013-05-15 04:18:00,59.9,46.8,30.36,SE,135,0.0,0.7,62,0.00,,,0.00,pywws,2013-05-15 08:18:00,
2013-05-15 04:23:00,59.7,46.7,30.36,NE,45,0.0,0.7,62,0.00,,,0.00,pywws,2013-05-15 08:23:00,
2013-05-15 04:33:00,59.7,46.7,30.36,NE,45,0.0,0.0,62,0.00,,,0.00,pywws,2013-05-15 08:33:00,
2013-05-15 04:38:00,59.7,47.1,30.36,South,180,0.0,0.7,63,0.00,,,0.00,pywws,2013-05-15 08:38:00,
2013-05-15 04:43:00,59.7,47.1,30.36,SE,135,0.0,0.0,63,0.00,,,0.00,pywws,2013-05-15 08:43:00,
2013-05-15 04:48:00,59.7,47.1,30.36,West,270,0.0,0.7,63,0.00,,,0.00,pywws,2013-05-15 08:48:00,
2013-05-15 04:53:00,59.7,47.1,30.37,SE,135,0.0,0.0,63,0.00,,,0.00,pywws,2013-05-15 08:53:00,
2013-05-15 05:03:00,59.5,46.9,30.37,SE,135,0.0,0.7,63,0.00,,,0.00,pywws,2013-05-15 09:03:00,
2013-05-15 05:08:00,59.5,47.3,30.37,West,270,0.0,0.7,64,0.00,,,0.00,pywws,2013-05-15 09:08:00,
2013-05-15 05:13:00,59.4,47.6,30.37,NW,315,0.0,0.7,65,0.00,,,0.00,pywws,2013-05-15 09:13:00,
2013-05-15 05:18:00,59.4,47.6,30.37,SW,225,0.0,1.6,65,0.00,,,0.00,pywws,2013-05-15 09:18:00,
2013-05-15 05:23:00,59.4,47.6,30.37,SW,225,0.7,2.2,65,0.00,,,0.00,pywws,2013-05-15 09:23:00,
2013-05-15 05:33:00,59.5,47.8,30.37,East,90,0.0,0.7,65,0.00,,,0.00,pywws,2013-05-15 09:33:00,
2013-05-15 05:38:00,59.4,47.6,30.37,SE,135,0.0,0.7,65,0.00,,,0.00,pywws,2013-05-15 09:38:00,
2013-05-15 05:43:00,59.4,47.6,30.37,SW,225,0.0,0.7,65,0.00,,,0.00,pywws,2013-05-15 09:43:00,
2013-05-15 05:48:00,59.4,48.0,30.38,South,180,0.7,2.2,66,0.00,,,0.00,pywws,2013-05-15 09:48:00,
2013-05-15 05:53:00,59.2,47.4,30.38,South,180,0.0,0.7,65,0.00,,,0.00,pywws,2013-05-15 09:53:00,
2013-05-15 06:03:00,59.2,47.8,30.38,East,90,0.0,0.0,66,0.00,,,0.00,pywws,2013-05-15 10:03:00,
2013-05-15 06:08:00,59.0,47.7,30.38,East,90,0.0,0.7,66,0.00,,,0.00,pywws,2013-05-15 10:08:00,
2013-05-15 06:13:00,59.0,47.7,30.38,SW,225,0.7,1.6,66,0.00,,,0.00,pywws,2013-05-15 10:13:00,
2013-05-15 06:18:00,58.8,47.9,30.38,South,180,0.0,1.6,67,0.00,,,0.00,pywws,2013-05-15 10:18:00,
2013-05-15 06:23:00,58.8,47.9,30.38,SE,135,0.7,2.2,67,0.00,,,0.00,pywws,2013-05-15 10:23:00,
2013-05-15 06:33:00,58.8,47.9,30.38,SE,135,0.7,2.2,67,0.00,,,0.00,pywws,2013-05-15 10:33:00,
2013-05-15 06:38:00,58.6,47.7,30.39,South,180,0.7,1.6,67,0.00,,,0.00,pywws,2013-05-15 10:38:00,
2013-05-15 06:43:00,58.6,48.1,30.39,East,90,0.0,1.6,68,0.00,,,0.00,pywws,2013-05-15 10:43:00,
2013-05-15 06:48:00,58.5,47.9,30.39,South,180,0.7,2.2,68,0.00,,,0.00,pywws,2013-05-15 10:48:00,
2013-05-15 06:53:00,58.5,47.9,30.39,West,270,0.0,1.6,68,0.00,,,0.00,pywws,2013-05-15 10:53:00,
2013-05-15 07:03:00,58.3,47.8,30.39,East,90,0.0,0.0,68,0.00,,,0.00,pywws,2013-05-15 11:03:00,
2013-05-15 07:08:00,58.1,48.0,30.39,West,270,0.0,0.7,69,0.00,,,0.00,pywws,2013-05-15 11:08:00,
2013-05-15 07:13:00,58.1,48.4,30.39,NW,315,0.0,0.7,70,0.00,,,0.00,pywws,2013-05-15 11:13:00,
2013-05-15 07:18:00,58.5,48.7,30.39,SE,135,0.0,0.7,70,0.00,,,0.00,pywws,2013-05-15 11:18:00,
2013-05-15 07:23:00,58.5,48.7,30.39,SW,225,0.0,0.7,70,0.00,,,0.00,pywws,2013-05-15 11:23:00,
2013-05-15 07:33:00,58.8,49.1,30.39,SW,225,0.7,3.1,70,0.00,,,0.00,pywws,2013-05-15 11:33:00,
2013-05-15 07:38:00,59.4,49.6,30.39,West,270,0.7,3.1,70,0.00,,,0.00,pywws,2013-05-15 11:38:00,
2013-05-15 07:43:00,59.7,49.5,30.38,North,0,0.7,2.2,69,0.00,,,0.00,pywws,2013-05-15 11:43:00,
2013-05-15 07:48:00,59.9,49.7,30.38,SE,135,0.0,1.6,69,0.00,,,0.00,pywws,2013-05-15 11:48:00,
2013-05-15 07:53:00,60.3,49.7,30.38,SW,225,0.0,0.7,68,0.00,,,0.00,pywws,2013-05-15 11:53:00,
2013-05-15 08:03:00,60.6,50.0,30.38,NE,45,0.7,1.6,68,0.00,,,0.00,pywws,2013-05-15 12:03:00,
2013-05-15 08:08:00,61.3,50.3,30.38,South,180,0.7,2.2,67,0.00,,,0.00,pywws,2013-05-15 12:08:00,
2013-05-15 08:13:00,61.7,50.6,30.38,South,180,0.7,2.2,67,0.00,,,0.00,pywws,2013-05-15 12:13:00,
2013-05-15 08:18:00,62.1,51.0,30.37,SW,225,0.7,3.1,67,0.00,,,0.00,pywws,2013-05-15 12:18:00,
2013-05-15 08:23:00,62.4,50.9,30.37,North,0,0.0,0.7,66,0.00,,,0.00,pywws,2013-05-15 12:23:00,
2013-05-15 08:33:00,62.8,51.2,30.37,South,180,0.0,1.6,66,0.00,,,0.00,pywws,2013-05-15 12:33:00,
2013-05-15 08:38:00,63.9,51.9,30.37,West,270,0.7,2.2,65,0.00,,,0.00,pywws,2013-05-15 12:38:00,
2013-05-15 08:43:00,64.2,52.2,30.37,South,180,0.0,1.6,65,0.00,,,0.00,pywws,2013-05-15 12:43:00,
2013-05-15 08:48:00,64.4,52.8,30.37,South,180,1.6,3.8,66,0.00,,,0.00,pywws,2013-05-15 12:48:00,
2013-05-15 08:53:00,65.5,53.0,30.37,West,270,0.7,3.8,64,0.00,,,0.00,pywws,2013-05-15 12:53:00,
2013-05-15 09:03:00,66.2,53.2,30.36,NE,45,0.7,1.6,63,0.00,,,0.00,pywws,2013-05-15 13:03:00,
2013-05-15 09:08:00,67.5,53.5,30.36,SW,225,3.1,6.0,61,0.00,,,0.00,pywws,2013-05-15 13:08:00,
2013-05-15 09:13:00,68.0,53.6,30.35,WNW,292,3.1,5.4,60,0.00,,,0.00,pywws,2013-05-15 13:13:00,
2013-05-15 09:18:00,68.7,53.8,30.35,NW,315,0.0,2.2,59,0.00,,,0.00,pywws,2013-05-15 13:18:00,
2013-05-15 09:23:00,69.4,54.0,30.35,East,90,1.6,3.1,58,0.00,,,0.00,pywws,2013-05-15 13:23:00,
2013-05-15 09:33:00,69.8,54.3,30.35,WNW,292,3.1,6.9,58,0.00,,,0.00,pywws,2013-05-15 13:33:00,
2013-05-15 09:38:00,70.3,54.4,30.34,West,270,3.1,4.5,57,0.00,,,0.00,pywws,2013-05-15 13:38:00,
2013-05-15 09:43:00,70.7,55.2,30.34,NW,315,1.6,3.8,58,0.00,,,0.00,pywws,2013-05-15 13:43:00,
2013-05-15 09:48:00,71.1,54.6,30.33,NW,315,2.2,6.0,56,0.00,,,0.00,pywws,2013-05-15 13:48:00,
2013-05-15 09:53:00,71.6,55.1,30.33,West,270,0.7,1.6,56,0.00,,,0.00,pywws,2013-05-15 13:53:00,
2013-05-15 09:58:00,72.3,55.2,30.33,NW,315,3.1,6.9,55,0.00,,,0.00,pywws,2013-05-15 13:58:00,
2013-05-15 10:03:00,72.7,55.6,30.33,West,270,1.6,3.1,55,0.00,,,0.00,pywws,2013-05-15 14:03:00,
2013-05-15 10:07:00,73.2,56.1,30.33,SW,225,2.2,4.5,55,0.00,,,0.00,pywws,2013-05-15 14:07:00,
2013-05-15 10:12:00,73.6,55.9,30.32,South,180,0.7,2.2,54,0.00,,,0.00,pywws,2013-05-15 14:12:00,
2013-05-15 10:17:00,74.1,56.4,30.32,North,0,2.2,3.8,54,0.00,,,0.00,pywws,2013-05-15 14:17:00,
2013-05-15 10:22:00,74.7,56.9,30.32,NW,315,1.6,3.8,54,0.00,,,0.00,pywws,2013-05-15 14:22:00,
2013-05-15 10:33:00,75.0,56.2,30.32,WNW,292,2.2,4.5,52,0.00,,,0.00,pywws,2013-05-15 14:33:00,
2013-05-15 10:38:00,76.1,56.6,30.31,West,270,5.4,8.3,51,0.00,,,0.00,pywws,2013-05-15 14:38:00,
2013-05-15 10:43:00,76.3,56.8,30.30,SW,225,1.6,2.2,51,0.00,,,0.00,pywws,2013-05-15 14:43:00,
2013-05-15 10:48:00,76.6,56.6,30.30,NE,45,3.1,4.5,50,0.00,,,0.00,pywws,2013-05-15 14:48:00,
2013-05-15 10:53:00,77.2,57.1,30.29,SW,225,4.5,6.9,50,0.00,,,0.00,pywws,2013-05-15 14:53:00,
2013-05-15 11:03:00,78.1,57.9,30.29,West,270,0.7,3.1,50,0.00,,,0.00,pywws,2013-05-15 15:03:00,
2013-05-15 11:08:00,80.4,56.5,30.29,West,270,2.2,4.5,44,0.00,,,0.00,pywws,2013-05-15 15:08:00,
2013-05-15 11:13:00,81.3,57.3,30.29,NW,315,3.8,5.4,44,0.00,,,0.00,pywws,2013-05-15 15:13:00,
2013-05-15 11:18:00,82.0,56.7,30.28,WSW,248,2.2,3.8,42,0.00,,,0.00,pywws,2013-05-15 15:18:00,
2013-05-15 11:23:00,82.6,57.1,30.28,SE,135,1.6,3.1,42,0.00,,,0.00,pywws,2013-05-15 15:23:00,
2013-05-15 11:33:00,82.9,56.1,30.27,WSW,248,1.6,5.4,40,0.00,,,0.00,pywws,2013-05-15 15:33:00,
2013-05-15 11:38:00,82.9,55.4,30.26,SW,225,3.1,5.4,39,0.00,,,0.00,pywws,2013-05-15 15:38:00,
2013-05-15 11:43:00,83.1,55.6,30.26,NW,315,3.1,5.4,39,0.00,,,0.00,pywws,2013-05-15 15:43:00,
2013-05-15 11:48:00,83.8,55.5,30.26,West,270,1.6,3.8,38,0.00,,,0.00,pywws,2013-05-15 15:48:00,
2013-05-15 11:53:00,84.4,56.0,30.25,West,270,0.7,2.2,38,0.00,,,0.00,pywws,2013-05-15 15:53:00,
2013-05-15 12:03:00,85.3,57.5,30.25,North,0,0.0,1.6,39,0.00,,,0.00,pywws,2013-05-15 16:03:00,
2013-05-15 12:08:00,86.0,54.3,30.24,NW,315,3.8,7.6,34,0.00,,,0.00,pywws,2013-05-15 16:08:00,
2013-05-15 12:13:00,85.6,54.0,30.23,West,270,3.1,7.6,34,0.00,,,0.00,pywws,2013-05-15 16:13:00,
2013-05-15 12:18:00,85.3,54.5,30.22,East,90,0.7,2.2,35,0.00,,,0.00,pywws,2013-05-15 16:18:00,
2013-05-15 12:23:00,86.0,55.9,30.22,South,180,1.6,3.8,36,0.00,,,0.00,pywws,2013-05-15 16:23:00,
2013-05-15 12:33:00,86.2,54.5,30.21,West,270,3.8,6.9,34,0.00,,,0.00,pywws,2013-05-15 16:33:00,
2013-05-15 12:38:00,86.4,55.4,30.20,NW,315,0.7,3.1,35,0.00,,,0.00,pywws,2013-05-15 16:38:00,
2013-05-15 12:43:00,86.7,53.3,30.20,West,270,4.5,6.9,32,0.00,,,0.00,pywws,2013-05-15 16:43:00,
2013-05-15 12:48:00,86.9,55.1,30.19,West,270,2.2,5.4,34,0.00,,,0.00,pywws,2013-05-15 16:48:00,
2013-05-15 12:53:00,87.1,55.3,30.19,SE,135,0.7,2.2,34,0.00,,,0.00,pywws,2013-05-15 16:53:00,
2013-05-15 13:03:00,87.3,54.6,30.18,South,180,3.8,7.6,33,0.00,,,0.00,pywws,2013-05-15 17:03:00,
2013-05-15 13:08:00,86.9,55.1,30.17,West,270,3.1,6.9,34,0.00,,,0.00,pywws,2013-05-15 17:08:00,
2013-05-15 13:13:00,87.4,56.4,30.16,South,180,1.6,3.8,35,0.00,,,0.00,pywws,2013-05-15 17:13:00,
2013-05-15 13:18:00,87.6,55.7,30.16,SW,225,0.7,2.2,34,0.00,,,0.00,pywws,2013-05-15 17:18:00,
2013-05-15 13:23:00,87.8,55.1,30.16,SW,225,3.8,6.0,33,0.00,,,0.00,pywws,2013-05-15 17:23:00,
2013-05-15 13:33:00,87.6,55.7,30.15,NNW,338,3.1,5.4,34,0.00,,,0.00,pywws,2013-05-15 17:33:00,
2013-05-15 13:38:00,88.2,55.4,30.15,NW,315,1.6,3.8,33,0.00,,,0.00,pywws,2013-05-15 17:38:00,
2013-05-15 13:43:00,89.4,56.5,30.14,West,270,2.2,4.5,33,0.00,,,0.00,pywws,2013-05-15 17:43:00,
2013-05-15 13:48:00,89.8,55.9,30.14,SW,225,1.6,3.8,32,0.00,,,0.00,pywws,2013-05-15 17:48:00,
2013-05-15 13:53:00,89.6,55.8,30.14,SE,135,0.7,2.2,32,0.00,,,0.00,pywws,2013-05-15 17:53:00,
2013-05-15 14:03:00,89.8,55.9,30.14,South,180,3.1,4.5,32,0.00,,,0.00,pywws,2013-05-15 18:03:00,
2013-05-15 14:07:00,89.8,55.1,30.13,South,180,2.2,5.4,31,0.00,,,0.00,pywws,2013-05-15 18:07:00,
2013-05-15 14:12:00,89.6,54.0,30.12,SE,135,1.6,3.8,30,0.00,,,0.00,pywws,2013-05-15 18:12:00,
2013-05-15 14:17:00,89.8,55.9,30.12,SE,135,0.7,2.2,32,0.00,,,0.00,pywws,2013-05-15 18:17:00,
2013-05-15 14:22:00,90.0,56.1,30.11,West,270,0.7,2.2,32,0.00,,,0.00,pywws,2013-05-15 18:22:00,
2013-05-15 14:33:00,90.5,55.7,30.11,West,270,3.1,6.0,31,0.00,,,0.00,pywws,2013-05-15 18:33:00,
2013-05-15 14:37:00,90.3,55.5,30.10,SW,225,2.2,4.5,31,0.00,,,0.00,pywws,2013-05-15 18:37:00,
2013-05-15 14:42:00,91.4,56.5,30.10,West,270,2.2,3.8,31,0.00,,,0.00,pywws,2013-05-15 18:42:00,
2013-05-15 14:47:00,90.5,54.8,30.09,West,270,1.6,5.4,30,0.00,,,0.00,pywws,2013-05-15 18:47:00,
2013-05-15 14:52:00,90.5,54.8,30.09,South,180,2.2,5.4,30,0.00,,,0.00,pywws,2013-05-15 18:52:00,
2013-05-15 15:03:00,91.2,55.4,30.08,South,180,0.7,3.1,30,0.00,,,0.00,pywws,2013-05-15 19:03:00,
2013-05-15 15:08:00,90.5,54.8,30.08,North,0,1.6,3.1,30,0.00,,,0.00,pywws,2013-05-15 19:08:00,
2013-05-15 15:13:00,91.0,55.3,30.07,SE,135,2.2,4.5,30,0.00,,,0.00,pywws,2013-05-15 19:13:00,
2013-05-15 15:18:00,90.7,54.9,30.06,SSW,202,1.6,3.8,30,0.00,,,0.00,pywws,2013-05-15 19:18:00,
2013-05-15 15:23:00,91.2,55.4,30.06,West,270,1.6,3.8,30,0.00,,,0.00,pywws,2013-05-15 19:23:00,
2013-05-15 15:33:00,91.0,55.3,30.05,SSW,202,2.2,3.8,30,0.00,,,0.00,pywws,2013-05-15 19:33:00,
2013-05-15 15:37:00,91.0,56.2,30.05,SE,135,2.2,5.4,31,0.00,,,0.00,pywws,2013-05-15 19:37:00,
2013-05-15 15:42:00,91.2,55.4,30.04,East,90,1.6,3.8,30,0.00,,,0.00,pywws,2013-05-15 19:42:00,
2013-05-15 15:47:00,91.2,55.4,30.03,East,90,3.1,5.4,30,0.00,,,0.00,pywws,2013-05-15 19:47:00,
2013-05-15 15:52:00,91.4,56.5,30.03,West,270,2.2,3.8,31,0.00,,,0.00,pywws,2013-05-15 19:52:00,
2013-05-15 16:03:00,91.9,56.0,30.03,NNW,338,1.6,4.5,30,0.00,,,0.00,pywws,2013-05-15 20:03:00,
2013-05-15 16:08:00,90.3,54.6,30.01,SW,225,1.6,3.1,30,0.00,,,0.00,pywws,2013-05-15 20:08:00,
2013-05-15 16:13:00,90.0,55.2,30.01,SW,225,1.6,3.1,31,0.00,,,0.00,pywws,2013-05-15 20:13:00,
2013-05-15 16:18:00,89.6,54.9,30.01,North,0,3.1,7.6,31,0.00,,,0.00,pywws,2013-05-15 20:18:00,
2013-05-15 16:23:00,89.4,55.6,30.00,SW,225,2.2,4.5,32,0.00,,,0.00,pywws,2013-05-15 20:23:00,
2013-05-15 16:33:00,89.2,55.5,30.00,NW,315,1.6,4.5,32,0.00,,,0.00,pywws,2013-05-15 20:33:00,
2013-05-15 16:38:00,89.1,56.2,29.99,South,180,3.1,4.5,33,0.00,,,0.00,pywws,2013-05-15 20:38:00,
2013-05-15 16:43:00,89.2,55.5,29.99,South,180,0.7,3.8,32,0.00,,,0.00,pywws,2013-05-15 20:43:00,
2013-05-15 16:48:00,89.2,55.5,29.99,NE,45,0.7,3.1,32,0.00,,,0.00,pywws,2013-05-15 20:48:00,
2013-05-15 16:53:00,89.8,56.8,29.98,NW,315,0.7,2.2,33,0.00,,,0.00,pywws,2013-05-15 20:53:00,
2013-05-15 17:03:00,90.1,57.1,29.98,SW,225,1.6,2.2,33,0.00,,,0.00,pywws,2013-05-15 21:03:00,
2013-05-15 17:08:00,89.6,56.6,29.98,NW,315,0.7,2.2,33,0.00,,,0.00,pywws,2013-05-15 21:08:00,
2013-05-15 17:13:00,89.4,56.5,29.97,SW,225,2.2,3.8,33,0.00,,,0.00,pywws,2013-05-15 21:13:00,
2013-05-15 17:18:00,89.4,55.6,29.97,SSW,202,3.1,5.4,32,0.00,,,0.00,pywws,2013-05-15 21:18:00,
2013-05-15 17:23:00,89.2,55.5,29.97,South,180,2.2,4.5,32,0.00,,,0.00,pywws,2013-05-15 21:23:00,
2013-05-15 17:33:00,89.2,56.3,29.96,West,270,1.6,3.1,33,0.00,,,0.00,pywws,2013-05-15 21:33:00,
2013-05-15 17:38:00,89.6,55.8,29.96,North,0,1.6,4.5,32,0.00,,,0.00,pywws,2013-05-15 21:38:00,
2013-05-15 17:43:00,89.6,54.9,29.96,South,180,0.7,4.5,31,0.00,,,0.00,pywws,2013-05-15 21:43:00,
2013-05-15 17:48:00,89.6,54.9,29.95,West,270,2.2,4.5,31,0.00,,,0.00,pywws,2013-05-15 21:48:00,
2013-05-15 17:53:00,89.6,54.0,29.95,NE,45,0.7,3.1,30,0.00,,,0.00,pywws,2013-05-15 21:53:00,
2013-05-15 18:03:00,90.0,53.4,29.94,SW,225,3.1,5.4,29,0.00,,,0.00,pywws,2013-05-15 22:03:00,
2013-05-15 18:07:00,91.0,55.3,29.94,SW,225,1.6,4.5,30,0.00,,,0.00,pywws,2013-05-15 22:07:00,
2013-05-15 18:12:00,90.9,55.1,29.94,West,270,1.6,3.8,30,0.00,,,0.00,pywws,2013-05-15 22:12:00,
2013-05-15 18:17:00,90.0,54.3,29.94,NW,315,2.2,4.5,30,0.00,,,0.00,pywws,2013-05-15 22:17:00,
2013-05-15 18:22:00,89.6,54.9,29.94,SW,225,0.7,1.6,31,0.00,,,0.00,pywws,2013-05-15 22:22:00,
2013-05-15 18:33:00,89.6,55.8,29.94,South,180,0.7,2.2,32,0.00,,,0.00,pywws,2013-05-15 22:33:00,
2013-05-15 18:37:00,88.5,55.7,29.93,South,180,0.0,1.6,33,0.00,,,0.00,pywws,2013-05-15 22:37:00,
2013-05-15 18:42:00,88.2,56.2,29.93,SW,225,0.7,2.2,34,0.00,,,0.00,pywws,2013-05-15 22:42:00,
2013-05-15 18:47:00,88.0,56.1,29.93,SE,135,2.2,4.5,34,0.00,,,0.00,pywws,2013-05-15 22:47:00,
2013-05-15 18:52:00,87.6,55.7,29.93,SE,135,0.0,3.1,34,0.00,,,0.00,pywws,2013-05-15 22:52:00,
2013-05-15 19:03:00,87.3,55.4,29.93,North,0,2.2,4.5,34,0.00,,,0.00,pywws,2013-05-15 23:03:00,
2013-05-15 19:07:00,86.9,55.1,29.93,West,270,0.7,1.6,34,0.00,,,0.00,pywws,2013-05-15 23:07:00,
2013-05-15 19:12:00,86.7,55.8,29.93,SW,225,0.7,1.6,35,0.00,,,0.00,pywws,2013-05-15 23:12:00,
2013-05-15 19:17:00,86.5,55.6,29.93,NW,315,0.0,1.6,35,0.00,,,0.00,pywws,2013-05-15 23:17:00,
2013-05-15 19:22:00,86.4,56.2,29.93,NW,315,0.7,1.6,36,0.00,,,0.00,pywws,2013-05-15 23:22:00,
2013-05-15 19:33:00,86.2,56.1,29.93,NW,315,1.6,3.1,36,0.00,,,0.00,pywws,2013-05-15 23:33:00,
2013-05-15 19:37:00,85.6,57.1,29.93,West,270,1.6,3.1,38,0.00,,,0.00,pywws,2013-05-15 23:37:00,
2013-05-15 19:42:00,85.3,56.8,29.93,SW,225,0.0,0.7,38,0.00,,,0.00,pywws,2013-05-15 23:42:00,
2013-05-15 19:47:00,84.9,57.2,29.93,South,180,0.0,0.7,39,0.00,,,0.00,pywws,2013-05-15 23:47:00,
2013-05-15 19:52:00,84.4,56.7,29.93,East,90,0.0,0.7,39,0.00,,,0.00,pywws,2013-05-15 23:52:00,
2013-05-15 20:03:00,84.0,57.8,29.93,West,270,0.0,1.6,41,0.00,,,0.00,pywws,2013-05-16 00:03:00,
2013-05-15 20:07:00,83.1,57.6,29.93,South,180,0.0,0.7,42,0.00,,,0.00,pywws,2013-05-16 00:07:00,
2013-05-15 20:12:00,82.8,57.3,29.93,West,270,0.0,0.7,42,0.00,,,0.00,pywws,2013-05-16 00:12:00,
2013-05-15 20:17:00,82.2,57.5,29.93,West,270,0.0,0.7,43,0.00,,,0.00,pywws,2013-05-16 00:17:00,
2013-05-15 20:22:00,81.9,57.8,29.93,South,180,0.0,0.0,44,0.00,,,0.00,pywws,2013-05-16 00:22:00,
2013-05-15 20:33:00,81.5,58.1,29.93,West,270,0.7,2.2,45,0.00,,,0.00,pywws,2013-05-16 00:33:00,
2013-05-15 20:37:00,80.6,57.9,29.93,SW,225,0.0,0.0,46,0.00,,,0.00,pywws,2013-05-16 00:37:00,
2013-05-15 20:42:00,80.2,58.2,29.93,SW,225,0.0,1.6,47,0.00,,,0.00,pywws,2013-05-16 00:42:00,
2013-05-15 20:47:00,79.9,57.8,29.93,NE,45,0.0,0.7,47,0.00,,,0.00,pywws,2013-05-16 00:47:00,
2013-05-15 20:52:00,79.5,58.1,29.93,South,180,0.0,0.0,48,0.00,,,0.00,pywws,2013-05-16 00:52:00,
2013-05-15 21:03:00,79.2,57.8,29.93,East,90,0.0,0.0,48,0.00,,,0.00,pywws,2013-05-16 01:03:00,
2013-05-15 21:08:00,78.8,58.0,29.93,South,180,0.0,0.7,49,0.00,,,0.00,pywws,2013-05-16 01:08:00,
2013-05-15 21:13:00,78.6,57.8,29.94,South,180,0.0,1.6,49,0.00,,,0.00,pywws,2013-05-16 01:13:00,
2013-05-15 21:18:00,78.3,58.1,29.94,South,180,0.0,0.0,50,0.00,,,0.00,pywws,2013-05-16 01:18:00,
2013-05-15 21:23:00,78.1,57.9,29.94,South,180,0.0,0.0,50,0.00,,,0.00,pywws,2013-05-16 01:23:00,
2013-05-15 21:33:00,77.7,57.6,29.94,South,180,0.0,0.0,50,0.00,,,0.00,pywws,2013-05-16 01:33:00,
2013-05-15 21:37:00,77.0,58.0,29.94,South,180,0.0,0.0,52,0.00,,,0.00,pywws,2013-05-16 01:37:00,
2013-05-15 21:42:00,76.6,57.7,29.94,South,180,0.0,0.0,52,0.00,,,0.00,pywws,2013-05-16 01:42:00,
2013-05-15 21:47:00,76.3,57.9,29.94,South,180,0.0,0.0,53,0.00,,,0.00,pywws,2013-05-16 01:47:00,
2013-05-15 21:52:00,76.1,57.7,29.94,South,180,0.0,0.0,53,0.00,,,0.00,pywws,2013-05-16 01:52:00,
2013-05-15 22:03:00,75.9,58.1,29.94,South,180,0.0,0.0,54,0.00,,,0.00,pywws,2013-05-16 02:03:00,
2013-05-15 22:08:00,75.7,57.9,29.95,South,180,0.0,0.7,54,0.00,,,0.00,pywws,2013-05-16 02:08:00,
2013-05-15 22:13:00,75.6,57.7,29.95,South,180,0.0,0.7,54,0.00,,,0.00,pywws,2013-05-16 02:13:00,
2013-05-15 22:18:00,75.6,57.7,29.95,East,90,0.0,0.0,54,0.00,,,0.00,pywws,2013-05-16 02:18:00,
2013-05-15 22:23:00,75.4,58.1,29.96,SW,225,0.0,0.7,55,0.00,,,0.00,pywws,2013-05-16 02:23:00,
2013-05-15 22:28:00,75.4,58.1,29.96,SW,225,0.0,0.0,55,0.00,,,0.00,pywws,2013-05-16 02:28:00,
2013-05-15 22:33:00,75.2,57.9,29.96,SW,225,0.0,0.0,55,0.00,,,0.00,pywws,2013-05-16 02:33:00,
2013-05-15 22:38:00,75.0,57.7,29.96,SW,225,0.0,0.0,55,0.00,,,0.00,pywws,2013-05-16 02:38:00,
2013-05-15 22:43:00,74.8,57.6,29.97,SW,225,0.0,0.0,55,0.00,,,0.00,pywws,2013-05-16 02:43:00,
2013-05-15 22:48:00,74.7,57.4,29.97,SW,225,0.0,0.0,55,0.00,,,0.00,pywws,2013-05-16 02:48:00,
2013-05-15 22:53:00,74.5,57.2,29.97,SW,225,0.0,0.0,55,0.00,,,0.00,pywws,2013-05-16 02:53:00,
2013-05-15 23:03:00,74.5,57.7,29.97,SW,225,0.0,0.0,56,0.00,,,0.00,pywws,2013-05-16 03:03:00,
2013-05-15 23:08:00,74.1,57.4,29.98,South,180,0.0,0.0,56,0.00,,,0.00,pywws,2013-05-16 03:08:00,
2013-05-15 23:13:00,74.1,57.4,29.98,South,180,0.0,0.0,56,0.00,,,0.00,pywws,2013-05-16 03:13:00,
2013-05-15 23:18:00,73.9,57.7,29.98,SW,225,0.0,0.0,57,0.00,,,0.00,pywws,2013-05-16 03:18:00,
2013-05-15 23:23:00,73.9,57.7,29.99,SW,225,0.0,0.0,57,0.00,,,0.00,pywws,2013-05-16 03:23:00,
2013-05-15 23:33:00,73.9,57.7,29.99,South,180,0.0,0.0,57,0.00,,,0.00,pywws,2013-05-16 03:33:00,
2013-05-15 23:38:00,73.9,57.7,29.99,SW,225,0.0,0.7,57,0.00,,,0.00,pywws,2013-05-16 03:38:00,
2013-05-15 23:43:00,73.9,57.7,29.99,NE,45,0.0,0.0,57,0.00,,,0.00,pywws,2013-05-16 03:43:00,
2013-05-15 23:48:00,73.8,57.6,30.00,South,180,0.0,0.7,57,0.00,,,0.00,pywws,2013-05-16 03:48:00,
2013-05-15 23:53:00,73.8,58.0,30.00,SW,225,0.7,1.6,58,0.00,,,0.00,pywws,2013-05-16 03:53:00,